• Join FlightAware (Why Join?)
  • Login
  • US Flag 
10:24AM EST


 

Airport Tracker/Info


-or-


 

Live Flight TrackerFlight Track Log ✈ DAL3796 ✈ 03-May-2013 ✈ KGRR - KDTW

Flight Track Log - Related Links

Times and Time Zones

All times are in EDT time to prevent confusion due to time zone crossing. See the DAL3796 flight status page for this flight to view local times or setup timezone preferences in your user account.

Time Position Orientation Groundspeed Altitude Reporting Facility
EDT Latitude Longitude Course Direction KTS MPH feet Rate Location/Type
03:43PM 42.9639 -85.0065 60° Northeast  Level FlightAware Approximate
03:44PM 42.9853 -84.9522 62° Northeast  Level FlightAware Approximate
03:44PM 42.8856 -85.4831 104° East 168 193 2,100  Level Chicago Center
03:45PM 43.0065 -84.8978 62° Northeast  Level FlightAware Approximate
03:45PM 42.9014 -85.4136 73° East 187 215 4,100  Level Chicago Center
03:46PM 43.0377 -84.8177 62° Northeast  Level FlightAware Approximate
03:46PM 42.9272 -85.3275 68° East 234 269 6,100  Level Chicago Center
03:47PM 43.0688 -84.7375 62° Northeast  Level FlightAware Approximate
03:47PM 42.9528 -85.2306 70° East 263 303 8,800  Level Chicago Center
03:48PM 43.0962 -84.6550 69° East  Level FlightAware Approximate
03:48PM 42.9825 -85.1261 69° East 289 333 10,700  Level Chicago Center
03:49PM 43.1141 -84.5699 105° East  Level FlightAware Approximate
03:49PM 43.0197 -84.9992 68° East 355 409 11,000  Level Chicago Center
03:50PM 43.0939 -84.4629 104° East  Level FlightAware Approximate
03:50PM 43.0614 -84.8497 69° East 339 390 11,200  Level Chicago Center
03:51PM 43.0883 -84.7439 71° East 300 345 12,000 360 Climbing Chicago Center
03:52PM 43.0917 -84.6294 88° East 301 346 12,000  Level Chicago Center
03:53PM 43.0842 -84.5236 96° East 289 333 12,000  Level Chicago Center
03:54PM 43.0683 -84.4164 101° East 287 330 12,000  Level Chicago Center
03:55PM 43.0503 -84.3139 104° East 282 325 12,000  Level Cleveland Center
03:56PM 43.0347 -84.2078 101° East 282 325 12,000  Level Cleveland Center
03:57PM 43.0247 -84.1275 100° East 287 330 12,100  Climbing Cleveland Center
03:57PM 43.0192 -84.1017 106° East 282 325 12,000  Descending Cleveland Center
03:57PM 43.0161 -84.0731 98° East 287 330 12,100  Climbing Cleveland Center
03:58PM 43.0039 -83.9931 102° East 282 325 12,000 -120 Descending Cleveland Center
03:58PM 42.9986 -83.9586 102° East 290 334 12,000 -120 Level Cleveland Center
03:59PM 42.9881 -83.8842 101° East 282 325 11,900  Descending Cleveland Center
03:59PM 42.9850 -83.8500 97° East 294 338 12,000 60 Climbing Cleveland Center
04:00PM 42.9467 -83.7997 136° Southeast 259 298 12,000  Level Cleveland Center
04:01PM 42.9161 -83.7811 156° South 284 327 12,000  Level Cleveland Center
04:01PM 42.8731 -83.7564 157° South 259 298 12,000  Level Cleveland Center
04:01PM 42.8503 -83.7467 163° South 282 325 12,000  Level Cleveland Center
04:02PM 42.8031 -83.7189 157° South 264 304 12,000 -420 Level Cleveland Center
04:02PM 42.7847 -83.7094 159° South 228 262 11,600 -1,200 Descending Cleveland Center
04:03PM 42.7436 -83.6819 154° Southeast 254 292 10,800 -1,320 Descending Cleveland Center
04:03PM 42.7231 -83.6725 161° South 229 264 10,300 -1,200 Descending Cleveland Center
04:04PM 42.6903 -83.6481 151° Southeast 226 260 9,600 -1,320 Descending Cleveland Center
04:04PM 42.6678 -83.6358 158° South 213 245 9,000 -1,500 Descending Cleveland Center
04:05PM 42.6458 -83.5981 128° Southeast 212 244 8,100 -1,620 Descending Cleveland Center
04:06PM 42.6361 -83.5692 115° Southeast 215 247 7,400 -1,500 Descending Cleveland Center
04:06PM 42.6164 -83.5261 122° Southeast 204 235 6,600 -1,320 Descending Cleveland Center
04:07PM 42.6047 -83.4944 117° Southeast 215 247 6,100 -420 Descending Cleveland Center
04:08PM 42.5750 -83.4311 122° Southeast 214 246 6,000 -60 Descending Cleveland Center
04:09PM 42.5414 -83.3589 122° Southeast 213 245 6,000 -480 Level Cleveland Center
04:10PM 42.5033 -83.2953 129° Southeast 208 239 5,100 -1,020 Descending Cleveland Center
04:11PM 42.4606 -83.2456 139° Southeast 193 222 4,000 -540 Descending Cleveland Center
04:12PM 42.4108 -83.2381 174° South 183 211 4,100 60 Climbing Cleveland Center